createdAt,value
2022-08-10T00:01:52.192Z,60.57
2022-08-10T00:04:22.563Z,60.95
2022-08-10T00:06:52.951Z,60.78
2022-08-10T00:09:23.562Z,60.94
2022-08-10T00:11:52.469Z,60.85
2022-08-10T00:14:21.009Z,60.27
2022-08-10T00:16:49.511Z,61.10
2022-08-10T00:19:18.343Z,61.28
2022-08-10T00:21:47.297Z,61.36
2022-08-10T00:24:16.175Z,61.29
2022-08-10T00:27:52.062Z,61.79
2022-08-10T00:29:34.918Z,61.26
2022-08-10T00:32:03.376Z,61.21
2022-08-10T00:34:34.215Z,61.03
2022-08-10T00:37:03.149Z,61.35
2022-08-10T00:39:31.754Z,61.34
2022-08-10T00:42:08.445Z,61.25
2022-08-10T00:44:38.700Z,61.32
2022-08-10T00:47:35.521Z,61.18
2022-08-10T00:49:56.732Z,60.96
2022-08-10T00:52:25.826Z,60.99
2022-08-10T00:54:55.705Z,60.81
2022-08-10T00:57:26.455Z,60.86
2022-08-10T00:59:57.601Z,60.73
2022-08-10T01:02:30.817Z,61.08
2022-08-10T01:05:02.348Z,60.48
2022-08-10T01:07:52.104Z,60.78
2022-08-10T01:10:30.828Z,60.63
2022-08-10T01:13:11.123Z,60.55
2022-08-10T01:15:50.341Z,60.86
2022-08-10T01:18:27.677Z,60.77
2022-08-10T01:21:23.694Z,60.71
2022-08-10T01:24:30.113Z,60.53
2022-08-10T01:27:16.681Z,60.68
2022-08-10T01:30:01.098Z,60.48
2022-08-10T01:32:38.809Z,60.84
2022-08-10T01:35:14.557Z,60.79
2022-08-10T01:37:51.892Z,60.66
2022-08-10T01:40:25.920Z,60.49
2022-08-10T01:43:07.830Z,60.51
2022-08-10T01:45:44.828Z,60.60
2022-08-10T01:48:30.821Z,60.49
2022-08-10T01:51:14.511Z,60.43
2022-08-10T01:53:47.376Z,60.58
2022-08-10T01:56:17.793Z,60.60
2022-08-10T01:58:49.943Z,60.46
2022-08-10T02:01:24.354Z,60.97
2022-08-10T02:04:04.091Z,60.37
2022-08-10T02:06:36.980Z,60.71
2022-08-10T02:09:07.651Z,61.10
2022-08-10T02:11:55.905Z,60.82
2022-08-10T02:14:33.452Z,60.78
2022-08-10T02:17:09.167Z,60.64
2022-08-10T02:20:03.058Z,60.79
2022-08-10T02:22:36.729Z,60.92
2022-08-10T02:25:09.403Z,60.91
2022-08-10T02:27:59.461Z,60.88
2022-08-10T02:30:30.375Z,60.83
2022-08-10T02:33:02.737Z,60.77
2022-08-10T02:35:53.825Z,60.92
2022-08-10T02:38:59.665Z,60.88
2022-08-10T02:45:14.469Z,60.75
2022-08-10T02:45:18.088Z,60.68
2022-08-10T02:47:07.908Z,60.49
2022-08-10T02:49:41.550Z,60.51
2022-08-10T02:52:15.942Z,60.65
2022-08-10T02:54:52.267Z,60.66
2022-08-10T02:57:24.051Z,60.85
2022-08-10T02:59:55.437Z,60.51
2022-08-10T03:02:29.202Z,60.47
2022-08-10T03:05:07.424Z,60.58
2022-08-10T03:07:44.569Z,60.82
2022-08-10T03:10:18.832Z,60.61
2022-08-10T03:12:52.342Z,60.66
2022-08-10T03:15:23.032Z,60.50
2022-08-10T03:17:57.881Z,60.57
2022-08-10T03:20:37.864Z,60.65
2022-08-10T03:23:12.050Z,60.65
2022-08-10T03:25:40.935Z,60.63
2022-08-10T03:28:22.500Z,60.61
2022-08-10T03:30:51.259Z,60.66
2022-08-10T03:33:21.667Z,60.55
2022-08-10T03:36:42.493Z,60.80
2022-08-10T03:38:41.589Z,60.55
2022-08-10T03:41:15.847Z,60.64
2022-08-10T03:43:48.109Z,60.70
2022-08-10T03:46:20.260Z,60.45
2022-08-10T03:48:52.680Z,60.23
2022-08-10T03:51:23.988Z,60.18
2022-08-10T03:54:04.909Z,60.27
2022-08-10T03:56:38.665Z,60.37
2022-08-10T03:59:09.170Z,60.32
2022-08-10T04:02:47.060Z,60.44
2022-08-10T04:04:27.082Z,60.33
2022-08-10T04:06:58.543Z,60.13
2022-08-10T04:09:43.120Z,60.21
2022-08-10T04:12:17.381Z,59.90
2022-08-10T04:14:50.791Z,60.00
2022-08-10T04:18:03.876Z,59.93
2022-08-10T04:20:19.589Z,59.85
2022-08-10T04:22:53.386Z,59.99
2022-08-10T04:25:23.913Z,59.74
2022-08-10T04:27:53.737Z,59.68
2022-08-10T04:30:22.948Z,59.56
2022-08-10T04:32:55.361Z,59.91
2022-08-10T04:35:25.554Z,59.26
2022-08-10T04:37:57.640Z,59.23
2022-08-10T04:40:29.423Z,58.88
2022-08-10T04:43:11.924Z,59.29
2022-08-10T04:45:47.442Z,59.07
2022-08-10T04:48:42.550Z,59.08
2022-08-10T04:51:17.387Z,58.92
2022-08-10T04:54:03.923Z,58.65
2022-08-10T04:56:38.037Z,58.73
2022-08-10T04:59:07.520Z,58.80
2022-08-10T05:02:12.115Z,58.69
2022-08-10T05:04:34.517Z,59.01
2022-08-10T05:07:06.629Z,58.35
2022-08-10T05:10:03.165Z,58.27
2022-08-10T05:12:25.238Z,58.27
2022-08-10T05:14:53.954Z,58.14
2022-08-10T05:17:24.207Z,57.84
2022-08-10T05:20:03.915Z,57.74
2022-08-10T05:22:40.059Z,57.65
2022-08-10T05:25:12.759Z,57.56
2022-08-10T05:27:42.226Z,57.44
2022-08-10T05:30:13.857Z,57.04
2022-08-10T05:32:57.414Z,57.07
2022-08-10T05:35:51.756Z,57.36
2022-08-10T05:38:19.821Z,57.11
2022-08-10T05:40:50.818Z,56.66
2022-08-10T05:43:20.695Z,56.47
2022-08-10T05:46:17.572Z,56.62
2022-08-10T05:48:59.423Z,56.60
2022-08-10T05:51:30.307Z,56.64
2022-08-10T05:54:04.764Z,56.36
2022-08-10T05:56:55.903Z,56.30
2022-08-10T06:00:31.172Z,56.96
2022-08-10T06:02:33.697Z,56.51
2022-08-10T06:05:12.001Z,56.73
2022-08-10T06:07:43.945Z,56.58
2022-08-10T06:10:30.999Z,56.09
2022-08-10T06:13:29.987Z,56.04
2022-08-10T06:16:06.808Z,55.86
2022-08-10T06:18:36.840Z,55.54
2022-08-10T06:21:06.495Z,55.34
2022-08-10T06:23:36.001Z,55.04
2022-08-10T06:26:09.993Z,54.72
2022-08-10T06:28:59.026Z,54.32
2022-08-10T06:31:48.491Z,54.50
2022-08-10T06:34:23.245Z,54.80
2022-08-10T06:36:54.232Z,54.94
2022-08-10T06:39:33.684Z,54.84
2022-08-10T06:42:15.909Z,54.93
2022-08-10T06:44:53.847Z,54.60
2022-08-10T06:47:26.775Z,54.01
2022-08-10T06:49:59.852Z,54.20
2022-08-10T06:52:32.143Z,54.21
2022-08-10T06:55:05.547Z,54.09
2022-08-10T06:57:40.163Z,53.99
2022-08-10T07:00:19.683Z,53.66
2022-08-10T07:02:53.554Z,53.63
2022-08-10T07:05:23.553Z,52.66
2022-08-10T07:07:53.794Z,51.58
2022-08-10T07:10:26.305Z,51.81
2022-08-10T07:13:16.576Z,51.26
2022-08-10T07:16:10.953Z,50.58
2022-08-10T07:18:41.142Z,49.81
2022-08-10T07:21:10.546Z,49.90
2022-08-10T07:23:58.583Z,48.81
2022-08-10T07:26:31.654Z,48.60
2022-08-10T07:29:01.742Z,49.00
2022-08-10T07:31:54.586Z,48.36
2022-08-10T07:34:29.694Z,48.52
2022-08-10T07:37:02.680Z,47.66
2022-08-10T07:40:02.749Z,47.98
2022-08-10T07:42:24.628Z,48.78
2022-08-10T07:44:53.715Z,48.90
2022-08-10T07:47:53.066Z,48.41
2022-08-10T07:50:21.956Z,46.97
2022-08-10T07:52:53.098Z,47.10
2022-08-10T07:56:04.216Z,47.59
2022-08-10T07:58:12.799Z,46.91
2022-08-10T08:00:43.009Z,47.89
2022-08-10T08:03:15.249Z,47.28
2022-08-10T08:05:58.645Z,45.29
2022-08-10T08:08:33.627Z,45.29
2022-08-10T08:11:02.906Z,45.46
2022-08-10T08:13:32.714Z,45.69
2022-08-10T08:16:19.149Z,45.30
2022-08-10T08:19:25.569Z,45.36
2022-08-10T08:24:05.627Z,45.30
2022-08-10T08:24:36.713Z,45.63
2022-08-10T08:27:07.951Z,45.08
2022-08-10T08:29:40.413Z,44.05
2022-08-10T08:32:10.914Z,44.35
2022-08-10T08:34:44.058Z,43.83
2022-08-10T08:37:18.815Z,43.46
2022-08-10T08:40:07.893Z,42.69
2022-08-10T08:42:49.949Z,42.74
2022-08-10T08:45:27.998Z,43.91
2022-08-10T08:48:26.494Z,44.51
2022-08-10T08:51:12.371Z,43.87
2022-08-10T08:54:00.870Z,43.02
2022-08-10T08:56:41.699Z,43.28
2022-08-10T08:59:26.620Z,44.21
2022-08-10T09:02:10.349Z,43.15
2022-08-10T09:05:16.376Z,42.41
2022-08-10T09:08:02.849Z,41.50
2022-08-10T09:10:45.305Z,42.33
2022-08-10T09:13:27.056Z,41.99
2022-08-10T09:16:10.201Z,42.55
2022-08-10T09:18:49.494Z,42.88
2022-08-10T09:21:24.977Z,42.00
2022-08-10T09:24:07.694Z,42.93
2022-08-10T09:26:46.899Z,43.00
2022-08-10T09:29:29.403Z,42.43
2022-08-10T09:36:13.493Z,41.52
2022-08-10T09:36:24.972Z,41.61
2022-08-10T09:38:04.982Z,41.88
2022-08-10T09:40:59.376Z,41.56
2022-08-10T09:43:47.477Z,40.32
2022-08-10T09:46:30.859Z,39.04
2022-08-10T09:49:06.723Z,39.94
2022-08-10T09:51:46.255Z,40.22
2022-08-10T09:54:31.400Z,40.32
2022-08-10T09:57:44.313Z,40.02
2022-08-10T10:00:11.195Z,39.76
2022-08-10T10:02:58.245Z,39.09
2022-08-10T10:05:31.159Z,39.15
2022-08-10T10:08:08.749Z,39.80
2022-08-10T10:10:47.812Z,40.09
2022-08-10T10:13:50.069Z,39.64
2022-08-10T10:16:33.971Z,40.00
2022-08-10T10:19:11.772Z,39.67
2022-08-10T10:21:55.743Z,40.08
2022-08-10T10:24:34.272Z,39.26
2022-08-10T10:27:16.094Z,40.06
2022-08-10T10:29:59.250Z,39.35
2022-08-10T10:32:42.275Z,39.63
2022-08-10T10:35:22.693Z,39.92
2022-08-10T10:38:10.597Z,39.84
2022-08-10T10:40:50.854Z,39.97
2022-08-10T10:43:40.919Z,38.34
2022-08-10T10:46:23.448Z,39.19
2022-08-10T10:49:02.047Z,39.77
2022-08-10T10:51:35.149Z,39.89
2022-08-10T10:54:10.655Z,38.25
2022-08-10T10:56:50.640Z,39.11
2022-08-10T10:59:55.016Z,39.38
2022-08-10T11:02:23.097Z,38.05
2022-08-10T11:05:02.499Z,38.49
2022-08-10T11:07:39.742Z,38.41
2022-08-10T11:10:32.513Z,38.92
2022-08-10T11:14:26.842Z,38.69
2022-08-10T11:16:18.055Z,38.36
2022-08-10T11:18:59.062Z,37.67
2022-08-10T11:21:47.205Z,38.36
2022-08-10T11:24:47.170Z,38.41
2022-08-10T11:27:21.941Z,37.45
2022-08-10T11:30:02.459Z,37.97
2022-08-10T11:32:43.002Z,37.59
2022-08-10T11:35:23.502Z,38.12
2022-08-10T11:38:31.331Z,38.11
2022-08-10T11:40:58.778Z,37.45
2022-08-10T11:43:50.343Z,38.00
2022-08-10T11:46:28.466Z,37.48
2022-08-10T11:49:05.304Z,38.36
2022-08-10T11:51:44.913Z,38.62
2022-08-10T11:54:26.351Z,37.76
2022-08-10T11:57:01.751Z,38.02
2022-08-10T11:59:57.911Z,37.50
2022-08-10T12:02:33.325Z,37.37
2022-08-10T12:05:06.920Z,35.89
2022-08-10T12:10:04.376Z,35.87
2022-08-10T12:10:32.013Z,36.40
2022-08-10T12:13:08.201Z,35.92
2022-08-10T12:15:44.928Z,37.04
2022-08-10T12:18:18.793Z,37.58
2022-08-10T12:20:52.104Z,36.00
2022-08-10T12:23:27.790Z,35.79
2022-08-10T12:26:07.702Z,35.80
2022-08-10T12:28:54.489Z,35.76
2022-08-10T12:31:28.431Z,35.71
2022-08-10T12:34:08.571Z,35.51
2022-08-10T12:36:42.341Z,36.86
2022-08-10T12:39:17.815Z,34.79
2022-08-10T12:41:52.815Z,34.24
2022-08-10T12:44:41.690Z,34.28
2022-08-10T12:47:23.224Z,34.31
2022-08-10T12:50:14.127Z,34.33
2022-08-10T12:52:59.168Z,34.77
2022-08-10T12:55:39.437Z,34.02
2022-08-10T12:58:57.741Z,34.99
2022-08-10T13:01:16.067Z,34.39
2022-08-10T13:04:20.438Z,34.48
2022-08-10T13:06:41.753Z,34.74
2022-08-10T13:09:10.760Z,34.34
2022-08-10T13:12:37.150Z,34.23
2022-08-10T13:14:38.585Z,34.71
2022-08-10T13:17:09.142Z,34.73
2022-08-10T13:19:56.061Z,34.36
2022-08-10T13:22:32.098Z,34.54
2022-08-10T13:25:04.447Z,34.60
2022-08-10T13:28:00.475Z,35.39
2022-08-10T13:30:37.914Z,34.79
2022-08-10T13:33:08.810Z,33.62
2022-08-10T13:35:38.069Z,33.89
2022-08-10T13:38:09.916Z,33.77
2022-08-10T13:40:40.562Z,33.35
2022-08-10T13:43:11.773Z,33.31
2022-08-10T13:45:49.726Z,34.32
2022-08-10T13:48:21.758Z,34.83
2022-08-10T13:50:53.504Z,34.13
2022-08-10T13:53:23.685Z,34.43
2022-08-10T13:55:56.730Z,34.61
2022-08-10T13:58:30.864Z,34.59
2022-08-10T14:01:01.447Z,34.84
2022-08-10T14:03:37.596Z,34.79
2022-08-10T14:06:08.963Z,36.53
2022-08-10T14:08:39.555Z,36.75
2022-08-10T14:11:13.879Z,35.49
2022-08-10T14:13:46.632Z,34.36
2022-08-10T14:16:15.584Z,34.89
2022-08-10T14:18:46.117Z,36.04
2022-08-10T14:21:16.246Z,34.99
2022-08-10T14:23:53.134Z,35.58
2022-08-10T14:26:26.320Z,36.30
2022-08-10T14:28:59.567Z,36.92
2022-08-10T14:31:34.098Z,34.79
2022-08-10T14:34:05.155Z,34.55
2022-08-10T14:36:42.298Z,34.10
2022-08-10T14:39:15.937Z,34.33
2022-08-10T14:42:03.839Z,34.76
2022-08-10T14:44:46.565Z,34.97
2022-08-10T14:47:52.864Z,34.98
2022-08-10T14:50:08.978Z,35.52
2022-08-10T14:52:44.053Z,35.54
2022-08-10T14:55:19.019Z,36.19
2022-08-10T14:58:19.817Z,35.70
2022-08-10T15:00:43.708Z,35.96
2022-08-10T15:04:01.049Z,35.72
2022-08-10T15:06:18.078Z,36.42
2022-08-10T15:08:48.064Z,36.98
2022-08-10T15:12:11.977Z,36.99
2022-08-10T15:14:29.349Z,37.28
2022-08-10T15:17:00.698Z,37.53
2022-08-10T15:20:02.638Z,36.80
2022-08-10T15:22:37.488Z,37.19
2022-08-10T15:25:17.653Z,37.29
2022-08-10T15:27:54.334Z,38.28
2022-08-10T15:30:30.061Z,37.69
2022-08-10T15:34:02.002Z,37.63
2022-08-10T15:36:33.321Z,37.88
2022-08-10T15:39:14.135Z,38.67
2022-08-10T15:42:00.316Z,40.00
2022-08-10T15:44:38.662Z,39.05
2022-08-10T15:47:12.422Z,38.43
2022-08-10T15:49:53.373Z,39.10
2022-08-10T15:52:39.797Z,38.68
2022-08-10T15:55:41.034Z,37.91
2022-08-10T15:58:10.800Z,38.47
2022-08-10T16:00:48.114Z,38.21
2022-08-10T16:03:24.309Z,37.97
2022-08-10T16:06:02.131Z,37.98
2022-08-10T16:08:56.441Z,38.23
2022-08-10T16:11:37.813Z,38.39
2022-08-10T16:14:11.745Z,39.40
2022-08-10T16:16:41.659Z,39.20
2022-08-10T16:19:22.212Z,41.49
2022-08-10T16:21:58.363Z,40.52
2022-08-10T16:27:22.229Z,39.46
2022-08-10T16:29:56.352Z,39.31
2022-08-10T16:32:26.811Z,40.80
2022-08-10T16:34:56.701Z,41.30
2022-08-10T16:37:59.033Z,40.61
2022-08-10T16:40:25.685Z,39.97
2022-08-10T16:42:55.303Z,39.09
2022-08-10T16:45:31.233Z,39.29
2022-08-10T16:48:00.703Z,39.14
2022-08-10T16:50:32.145Z,39.45
2022-08-10T16:53:03.625Z,39.14
2022-08-10T16:55:49.018Z,38.92
2022-08-10T16:58:22.365Z,38.06
2022-08-10T17:00:52.389Z,38.01
2022-08-10T17:04:07.620Z,37.70
2022-08-10T17:06:22.204Z,38.19
2022-08-10T17:08:56.885Z,38.32
2022-08-10T17:11:31.325Z,38.36
2022-08-10T17:14:01.409Z,38.75
2022-08-10T17:16:37.231Z,38.23
2022-08-10T17:19:12.113Z,38.28
2022-08-10T17:21:50.919Z,38.33
2022-08-10T17:24:24.305Z,38.41
2022-08-10T17:26:52.986Z,38.83
2022-08-10T17:29:57.672Z,38.37
2022-08-10T17:32:20.406Z,38.39
2022-08-10T17:34:51.274Z,38.98
2022-08-10T17:37:24.573Z,38.88
2022-08-10T17:40:00.207Z,38.64
2022-08-10T17:42:29.616Z,38.85
2022-08-10T17:44:59.719Z,38.58
2022-08-10T17:47:28.611Z,38.98
2022-08-10T17:49:58.199Z,38.89
2022-08-10T17:52:30.366Z,38.92
2022-08-10T17:55:04.536Z,38.93
2022-08-10T17:57:37.851Z,38.81
2022-08-10T18:00:10.301Z,39.00
2022-08-10T18:02:41.802Z,39.37
2022-08-10T18:05:12.876Z,39.22
2022-08-10T18:07:46.842Z,39.42
2022-08-10T18:10:20.530Z,39.51
2022-08-10T18:12:51.305Z,39.66
2022-08-10T18:15:23.312Z,39.94
2022-08-10T18:17:59.173Z,39.75
2022-08-10T18:20:34.988Z,40.23
2022-08-10T18:23:04.919Z,39.79
2022-08-10T18:25:37.759Z,40.17
2022-08-10T18:28:12.131Z,40.53
2022-08-10T18:30:48.290Z,40.87
2022-08-10T18:33:18.758Z,41.02
2022-08-10T18:35:48.268Z,40.89
2022-08-10T18:38:18.648Z,40.87
2022-08-10T18:40:54.561Z,40.36
2022-08-10T18:44:06.956Z,40.59
2022-08-10T18:46:21.785Z,39.98
2022-08-10T18:48:55.371Z,39.68
2022-08-10T18:51:26.857Z,40.30
2022-08-10T18:54:00.699Z,39.89
2022-08-10T18:56:53.645Z,39.32
2022-08-10T19:00:08.128Z,39.34
2022-08-10T19:02:55.122Z,38.45
2022-08-10T19:05:42.632Z,38.09
2022-08-10T19:08:31.865Z,38.31
2022-08-10T19:11:05.115Z,37.27
2022-08-10T19:13:50.931Z,36.78
2022-08-10T19:16:37.107Z,36.58
2022-08-10T19:19:22.868Z,36.62
2022-08-10T19:22:01.714Z,36.50
2022-08-10T19:24:44.826Z,37.23
2022-08-10T19:27:23.555Z,38.12
2022-08-10T19:30:11.055Z,36.33
2022-08-10T19:33:07.130Z,35.58
2022-08-10T19:36:03.304Z,36.42
2022-08-10T19:38:49.703Z,36.78
2022-08-10T19:41:32.458Z,36.53
2022-08-10T19:44:11.340Z,35.84
2022-08-10T19:46:45.949Z,36.02
2022-08-10T19:49:24.352Z,35.48
2022-08-10T19:52:00.889Z,35.99
2022-08-10T19:54:46.793Z,34.93
2022-08-10T19:57:30.257Z,35.83
2022-08-10T20:00:19.390Z,35.46
2022-08-10T20:03:08.103Z,35.74
2022-08-10T20:06:19.068Z,35.38
2022-08-10T20:08:43.897Z,35.67
2022-08-10T20:11:44.299Z,35.95
2022-08-10T20:14:21.441Z,35.97
2022-08-10T20:16:56.012Z,35.69
2022-08-10T20:19:52.877Z,35.56
2022-08-10T20:22:29.801Z,35.21
2022-08-10T20:44:01.595Z,35.05
2022-08-10T20:46:36.851Z,35.55
2022-08-10T20:49:21.365Z,35.35
2022-08-10T20:51:58.136Z,35.68
2022-08-10T20:54:34.197Z,35.34
2022-08-10T20:57:56.569Z,35.21
2022-08-10T21:00:13.071Z,35.38
2022-08-10T21:02:58.749Z,35.02
2022-08-10T21:05:52.690Z,35.18
2022-08-10T21:08:34.291Z,35.85
2022-08-10T21:11:09.911Z,35.94
2022-08-10T21:14:07.108Z,35.88
2022-08-10T21:16:50.265Z,36.32
2022-08-10T21:19:53.869Z,35.93
2022-08-10T21:22:29.494Z,35.76
2022-08-10T21:25:03.068Z,35.84
2022-08-10T21:27:55.157Z,36.51
2022-08-10T21:30:37.910Z,35.78
2022-08-10T21:33:12.298Z,36.16
2022-08-10T21:35:46.310Z,35.95
2022-08-10T21:38:26.431Z,35.98
2022-08-10T21:41:57.552Z,35.93
2022-08-10T21:44:43.375Z,36.05
2022-08-10T21:48:06.676Z,36.13
2022-08-10T21:51:06.005Z,36.09
2022-08-10T21:53:57.200Z,36.06
2022-08-10T21:56:48.411Z,36.39
2022-08-10T21:59:47.927Z,36.75
2022-08-10T22:02:50.194Z,36.90
2022-08-10T22:05:42.640Z,37.40
2022-08-10T22:08:34.903Z,38.03
2022-08-10T22:11:23.233Z,37.48
2022-08-10T22:14:10.649Z,38.04
2022-08-10T22:17:05.875Z,37.78
2022-08-10T22:20:19.170Z,38.24
2022-08-10T22:23:29.717Z,37.53
2022-08-10T22:26:29.068Z,37.86
2022-08-10T22:29:18.707Z,37.97
2022-08-10T22:32:15.722Z,38.26
2022-08-10T22:35:15.901Z,38.04
2022-08-10T22:38:14.489Z,38.37
2022-08-10T22:41:03.994Z,38.40
2022-08-10T22:43:53.314Z,38.63
2022-08-10T22:46:43.961Z,39.48
2022-08-10T22:49:12.646Z,39.71
2022-08-10T22:51:52.590Z,39.58
2022-08-10T22:54:46.342Z,39.74
2022-08-10T22:57:34.440Z,39.78
2022-08-10T23:00:14.432Z,39.40
2022-08-10T23:02:51.557Z,39.70
2022-08-10T23:05:28.099Z,39.63
2022-08-10T23:08:02.628Z,39.18
2022-08-10T23:10:39.707Z,39.36
2022-08-10T23:13:11.715Z,39.49
2022-08-10T23:16:16.272Z,39.45
2022-08-10T23:19:08.528Z,39.53
2022-08-10T23:22:03.956Z,39.94
2022-08-10T23:24:37.427Z,40.05
2022-08-10T23:27:13.088Z,40.22
2022-08-10T23:30:09.266Z,40.15
2022-08-10T23:32:44.953Z,40.09
2022-08-10T23:36:30.597Z,40.28
2022-08-10T23:38:06.219Z,40.64
2022-08-10T23:40:36.505Z,40.65
2022-08-10T23:43:06.954Z,40.52
2022-08-10T23:45:52.823Z,40.88
2022-08-10T23:48:25.213Z,40.88
2022-08-10T23:51:00.320Z,41.21
2022-08-10T23:53:31.756Z,41.08
2022-08-10T23:56:07.615Z,41.46
2022-08-10T23:58:41.132Z,41.57
